This is the latest recevied weather packets stored in our database for station/object KA9CBS. If no packets are shown the sender has not sent any weather packets the latest 10 day(s).
| Time | Temp. | Humidity | Pressure | Rain* | Wind** | Luminosity | Snow |
|---|---|---|---|---|---|---|---|
| 1777738112 | 10° C | 83% | 1020.5 hPa | 0 mm | - | 204 W/m² | - |
| 1777737810 | 10° C | 84% | 1020.3 hPa | 0 mm | - | 164 W/m² | - |
| 1777737508 | 10° C | 84% | 1020.5 hPa | 0 mm | - | 150 W/m² | - |
| 1777737206 | 10° C | 83% | 1020.6 hPa | 0 mm | - | 153 W/m² | - |
| 1777736901 | 10° C | 84% | 1020.3 hPa | 0 mm | - | 147 W/m² | - |
| 1777736294 | 10.56° C | 82% | 1020.4 hPa | 0 mm | - | 142 W/m² | - |
| 1777735990 | 11.67° C | 78% | 1020.3 hPa | 0 mm | - | 96 W/m² | - |
| 1777735688 | 11.67° C | 76% | 1020.3 hPa | 0 mm | - | 63 W/m² | - |
| 1777735385 | 11.67° C | 76% | 1020.3 hPa | 0 mm | - | 58 W/m² | - |
| 1777735083 | 12.22° C | 75% | 1020.1 hPa | 0 mm | - | 83 W/m² | - |
| 1777734779 | 12.22° C | 74% | 1020 hPa | 0 mm | - | 161 W/m² | - |
| 1777734477 | 12.22° C | 75% | 1020 hPa | 0 mm | - | 246 W/m² | - |
| 1777734173 | 12.78° C | 76% | 1019.9 hPa | 0 mm | - | 327 W/m² | - |
| 1777733869 | 12.78° C | 75% | 1019.7 hPa | 0 mm | - | 346 W/m² | - |
| 1777733566 | 12.78° C | 76% | 1019.8 hPa | 0 mm | - | 488 W/m² | - |
| 1777733262 | 12.22° C | 77% | 1019.6 hPa | 0 mm | - | 275 W/m² | - |
| 1777732960 | 12.78° C | 76% | 1019.3 hPa | 0 mm | - | 296 W/m² | - |
| 1777732655 | 12.78° C | 77% | 1019.4 hPa | 0 mm | - | 588 W/m² | - |
| 1777732353 | 12.78° C | 76% | 1019.4 hPa | 0 mm | - | 205 W/m² | - |
| 1777732051 | 12.22° C | 79% | 1019.3 hPa | 0 mm | - | 569 W/m² | - |
| 1777731747 | 11.67° C | 81% | 1019.5 hPa | 0 mm | - | 549 W/m² | - |
| 1777731444 | 11.11° C | 84% | 1019.4 hPa | 0 mm | - | 451 W/m² | - |
| 1777731143 | 10.56° C | 85% | 1019.4 hPa | 0 mm | - | 322 W/m² | - |
| 1777730840 | 10.56° C | 86% | 1019.7 hPa | 0 mm | - | 140 W/m² | - |
| 1777730538 | 10.56° C | 88% | 1019.1 hPa | 0 mm | - | 254 W/m² | - |
* Rain latest hour (hover to see other rain measurements)
** Current wind speed in m/s (hover to see current wind gust speed)